createdAt,value
2023-12-30T00:00:41.509Z,508.7
2023-12-30T00:01:43.647Z,508.5
2023-12-30T00:02:45.993Z,508.7
2023-12-30T00:03:48.319Z,508.7
2023-12-30T00:04:50.401Z,508.7
2023-12-30T00:05:52.488Z,508.6
2023-12-30T00:06:54.763Z,508.5
2023-12-30T00:07:56.513Z,508.6
2023-12-30T00:08:58.237Z,508.8
2023-12-30T00:10:00.302Z,508.7
2023-12-30T00:11:02.106Z,509
2023-12-30T00:12:03.877Z,508.7
2023-12-30T00:13:06.858Z,508.8
2023-12-30T00:14:08.998Z,509
2023-12-30T00:15:10.721Z,508.9
2023-12-30T00:16:12.712Z,508.9
2023-12-30T00:17:14.453Z,508.8
2023-12-30T00:18:16.781Z,508.7
2023-12-30T00:19:19.526Z,508.8
2023-12-30T00:20:21.308Z,509.1
2023-12-30T00:21:23.312Z,508.5
2023-12-30T00:22:25.733Z,508.8
2023-12-30T00:23:49.341Z,508.3
2023-12-30T00:24:51.302Z,508.4
2023-12-30T00:25:53.106Z,508.4
2023-12-30T00:26:55.008Z,508.1
2023-12-30T00:27:57.183Z,508.1
2023-12-30T00:28:59.063Z,508.2
2023-12-30T00:30:00.791Z,508
2023-12-30T00:31:03.125Z,508
2023-12-30T00:32:05.021Z,507.5
2023-12-30T00:33:08.685Z,507.6
2023-12-30T00:34:11.735Z,507.6
2023-12-30T00:35:13.551Z,507.7
2023-12-30T00:36:15.455Z,507.7
2023-12-30T00:37:17.743Z,507.7
2023-12-30T00:38:25.361Z,507.8
2023-12-30T00:39:27.125Z,507.8
2023-12-30T00:40:29.450Z,507.6
2023-12-30T00:41:31.233Z,507.7
2023-12-30T00:42:32.898Z,507.9
2023-12-30T00:43:34.920Z,507.2
2023-12-30T00:44:36.730Z,507.3
2023-12-30T00:45:38.562Z,507.5
2023-12-30T00:46:40.292Z,507.5
2023-12-30T00:47:42.323Z,507.2
2023-12-30T00:48:58.829Z,507.2
2023-12-30T00:50:01.078Z,506.9
2023-12-30T00:51:02.811Z,507.1
2023-12-30T00:52:04.968Z,506.9
2023-12-30T00:53:06.709Z,506.9
2023-12-30T00:54:08.435Z,507.2
2023-12-30T00:55:10.620Z,506.9
2023-12-30T00:56:12.512Z,507.1
2023-12-30T00:57:14.232Z,507.2
2023-12-30T00:58:16.278Z,507
2023-12-30T00:59:18.197Z,507.1
2023-12-30T01:00:19.943Z,507
2023-12-30T01:01:22.134Z,507.2
2023-12-30T01:02:23.973Z,507.3
2023-12-30T01:03:25.960Z,506.7
2023-12-30T01:04:28.285Z,506.9
2023-12-30T01:05:30.343Z,506.8
2023-12-30T01:06:32.038Z,507
2023-12-30T01:07:33.926Z,507
2023-12-30T01:08:36.687Z,506.9
2023-12-30T01:09:38.517Z,506.8
2023-12-30T01:10:40.282Z,506.7
2023-12-30T01:11:41.954Z,507.1
2023-12-30T01:12:43.629Z,506.7
2023-12-30T01:13:45.876Z,507
2023-12-30T01:14:47.719Z,506.9
2023-12-30T01:15:49.798Z,507.1
2023-12-30T01:16:51.678Z,507.5
2023-12-30T01:17:53.840Z,507.4
2023-12-30T01:18:58.857Z,507.5
2023-12-30T01:20:00.749Z,507.5
2023-12-30T01:21:02.566Z,507.7
2023-12-30T01:22:04.336Z,507.5
2023-12-30T01:23:06.075Z,507.8
2023-12-30T01:24:07.791Z,507.5
2023-12-30T01:25:10.011Z,507.8
2023-12-30T01:26:11.995Z,507.4
2023-12-30T01:27:13.733Z,507.3
2023-12-30T01:28:15.528Z,507.5
2023-12-30T01:29:17.436Z,507.5
2023-12-30T01:30:19.581Z,507.7
2023-12-30T01:31:21.949Z,507.2
2023-12-30T01:32:23.834Z,507.6
2023-12-30T01:33:28.762Z,507.2
2023-12-30T01:34:31.255Z,507.4
2023-12-30T01:35:33.076Z,507.6
2023-12-30T01:36:34.800Z,507.8
2023-12-30T01:37:37.092Z,508.3
2023-12-30T01:38:38.825Z,508.1
2023-12-30T01:39:40.569Z,507.9
2023-12-30T01:40:42.305Z,507.9
2023-12-30T01:41:44.599Z,507.8
2023-12-30T01:42:46.297Z,507.7
2023-12-30T01:43:48.680Z,508
2023-12-30T01:44:50.479Z,507.7
2023-12-30T01:45:52.507Z,508
2023-12-30T01:46:54.219Z,508.1
2023-12-30T01:47:56.591Z,507.7
2023-12-30T01:48:58.946Z,507.7
2023-12-30T01:50:00.956Z,507.4
2023-12-30T01:51:02.656Z,507.8
2023-12-30T01:52:04.874Z,507.6
2023-12-30T01:53:07.127Z,507.8
2023-12-30T01:54:12.012Z,507.7
2023-12-30T01:55:14.013Z,507.7
2023-12-30T01:56:15.934Z,507.8
2023-12-30T01:57:17.656Z,508.2
2023-12-30T01:58:19.529Z,508.6
2023-12-30T01:59:21.316Z,508.5
2023-12-30T02:00:23.118Z,508.5
2023-12-30T02:01:25.414Z,508.9
2023-12-30T02:02:27.236Z,509.2
2023-12-30T02:03:29.312Z,509.5
2023-12-30T02:04:31.575Z,509.4
2023-12-30T02:05:33.797Z,509.5
2023-12-30T02:06:35.483Z,509.6
2023-12-30T02:07:37.206Z,509.5
2023-12-30T02:08:38.910Z,509.4
2023-12-30T02:09:40.648Z,509.7
2023-12-30T02:10:42.559Z,510
2023-12-30T02:11:44.408Z,510.3
2023-12-30T02:12:46.604Z,510.3
2023-12-30T02:13:48.784Z,510.4
2023-12-30T02:14:50.504Z,510.3
2023-12-30T02:15:52.424Z,510.3
2023-12-30T02:16:54.137Z,510.4
2023-12-30T02:17:56.317Z,510.2
2023-12-30T02:18:58.812Z,509.9
2023-12-30T02:20:01.320Z,509.5
2023-12-30T02:21:03.069Z,509.7
2023-12-30T02:22:05.164Z,509.9
2023-12-30T02:23:07.561Z,509.6
2023-12-30T02:24:09.293Z,509.8
2023-12-30T02:25:11.123Z,509.4
2023-12-30T02:26:12.904Z,509.6
2023-12-30T02:27:14.741Z,509.4
2023-12-30T02:28:17.052Z,509.5
2023-12-30T02:29:18.843Z,509.6
2023-12-30T02:30:20.882Z,509.2
2023-12-30T02:31:22.729Z,509.1
2023-12-30T02:32:24.905Z,509.4
2023-12-30T02:33:27.219Z,509.4
2023-12-30T02:34:29.827Z,509.2
2023-12-30T02:35:31.713Z,509
2023-12-30T02:36:33.398Z,508.8
2023-12-30T02:37:35.649Z,509.1
2023-12-30T02:38:37.409Z,509.1
2023-12-30T02:39:39.073Z,508.9
2023-12-30T02:40:41.277Z,508.8
2023-12-30T02:41:43.144Z,509
2023-12-30T02:42:45.783Z,508.7
2023-12-30T02:43:47.667Z,508.5
2023-12-30T02:44:49.688Z,508.4
2023-12-30T02:45:51.445Z,508.5
2023-12-30T02:46:53.351Z,508.8
2023-12-30T02:47:55.660Z,508.7
2023-12-30T02:48:58.169Z,509
2023-12-30T02:50:00.403Z,509
2023-12-30T02:51:02.212Z,508.8
2023-12-30T02:52:04.238Z,509.1
2023-12-30T02:53:06.185Z,509.1
2023-12-30T02:54:07.953Z,509.2
2023-12-30T02:55:10.170Z,509.1
2023-12-30T02:56:12.000Z,509.1
2023-12-30T02:57:13.901Z,509.3
2023-12-30T02:58:16.038Z,509.2
2023-12-30T02:59:17.729Z,509.5
2023-12-30T03:00:20.199Z,509
2023-12-30T03:01:25.335Z,509.3
2023-12-30T03:02:27.297Z,509.7
2023-12-30T03:03:28.959Z,509.6
2023-12-30T03:04:31.201Z,509.7
2023-12-30T03:05:33.100Z,509.9
2023-12-30T03:06:34.848Z,509.8
2023-12-30T03:07:36.611Z,509.7
2023-12-30T03:08:38.321Z,509.6
2023-12-30T03:09:40.000Z,509.6
2023-12-30T03:10:42.241Z,509.6
2023-12-30T03:11:44.314Z,509.6
2023-12-30T03:12:46.119Z,509.6
2023-12-30T03:13:47.910Z,509.1
2023-12-30T03:14:49.652Z,509
2023-12-30T03:15:51.611Z,509.3
2023-12-30T03:16:53.458Z,509.5
2023-12-30T03:17:55.764Z,510
2023-12-30T03:18:58.937Z,510.1
2023-12-30T03:20:01.142Z,510.1
2023-12-30T03:21:02.870Z,510.2
2023-12-30T03:22:04.693Z,509.7
2023-12-30T03:23:06.394Z,509.9
2023-12-30T03:24:08.589Z,510
2023-12-30T03:25:10.417Z,509.8
2023-12-30T03:26:12.539Z,510.1
2023-12-30T03:27:14.271Z,510.2
2023-12-30T03:28:16.490Z,510.2
2023-12-30T03:29:18.670Z,510.1
2023-12-30T03:30:20.802Z,510.1
2023-12-30T03:31:23.087Z,510.5
2023-12-30T03:32:24.912Z,510.3
2023-12-30T03:33:27.194Z,510.3
2023-12-30T03:34:29.595Z,510.1
2023-12-30T03:35:31.546Z,509.9
2023-12-30T03:36:33.386Z,509.7
2023-12-30T03:37:35.471Z,510
2023-12-30T03:38:37.220Z,509.8
2023-12-30T03:39:38.880Z,509.8
2023-12-30T03:40:40.788Z,509.8
2023-12-30T03:41:42.519Z,510
2023-12-30T03:42:44.283Z,509.6
2023-12-30T03:43:46.692Z,510
2023-12-30T03:44:48.976Z,509.7
2023-12-30T03:45:51.152Z,509.8
2023-12-30T03:46:52.991Z,509.7
2023-12-30T03:47:55.336Z,509.7
2023-12-30T03:48:57.601Z,509.4
2023-12-30T03:49:59.725Z,509.6
2023-12-30T03:51:01.548Z,509.7
2023-12-30T03:52:03.325Z,509.6
2023-12-30T03:53:05.869Z,509.7
2023-12-30T03:54:07.608Z,509.3
2023-12-30T03:55:10.093Z,509.3
2023-12-30T03:56:11.874Z,509.3
2023-12-30T03:57:13.661Z,509.3
2023-12-30T03:58:15.573Z,509.4
2023-12-30T03:59:17.448Z,509.4
2023-12-30T04:00:19.209Z,509.2
2023-12-30T04:01:21.434Z,509.2
2023-12-30T04:02:23.755Z,509.3
2023-12-30T04:03:25.928Z,509.1
2023-12-30T04:04:28.298Z,509
2023-12-30T04:05:30.589Z,508.3
2023-12-30T04:06:32.434Z,508.3
2023-12-30T04:07:34.450Z,508.2
2023-12-30T04:08:36.176Z,508.1
2023-12-30T04:09:37.853Z,508.3
2023-12-30T04:10:39.705Z,507.9
2023-12-30T04:11:41.755Z,507.7
2023-12-30T04:12:43.942Z,507.9
2023-12-30T04:13:46.420Z,507.6
2023-12-30T04:14:48.319Z,507.8
2023-12-30T04:15:50.267Z,507.9
2023-12-30T04:16:52.251Z,508.4
2023-12-30T04:17:54.549Z,507.8
2023-12-30T04:18:56.615Z,508.1
2023-12-30T04:19:59.014Z,507.8
2023-12-30T04:21:00.938Z,507.9
2023-12-30T04:22:02.934Z,507.7
2023-12-30T04:23:06.176Z,508
2023-12-30T04:24:08.178Z,507.6
2023-12-30T04:25:14.102Z,507.9
2023-12-30T04:26:16.027Z,507.8
2023-12-30T04:27:17.773Z,508
2023-12-30T04:28:19.833Z,507.6
2023-12-30T04:29:22.043Z,507.5
2023-12-30T04:30:24.601Z,507.4
2023-12-30T04:31:26.631Z,507.7
2023-12-30T04:32:28.596Z,508
2023-12-30T04:33:31.061Z,507.9
2023-12-30T04:34:33.196Z,507.5
2023-12-30T04:35:35.071Z,507.9
2023-12-30T04:36:36.783Z,507.8
2023-12-30T04:37:38.705Z,507.8
2023-12-30T04:38:40.400Z,508
2023-12-30T04:39:42.092Z,508.1
2023-12-30T04:40:44.180Z,507.9
2023-12-30T04:41:46.439Z,508
2023-12-30T04:42:48.181Z,508
2023-12-30T04:43:49.916Z,508.2
2023-12-30T04:44:51.888Z,507.5
2023-12-30T04:45:54.041Z,507.4
2023-12-30T04:46:55.824Z,507.5
2023-12-30T04:47:57.761Z,507.6
2023-12-30T04:48:59.970Z,507.6
2023-12-30T04:50:02.381Z,507.8
2023-12-30T04:51:04.248Z,507.9
2023-12-30T04:52:06.271Z,507.6
2023-12-30T04:53:08.531Z,508.2
2023-12-30T04:54:10.248Z,507.8
2023-12-30T04:55:12.161Z,507.9
2023-12-30T04:56:13.843Z,507.7
2023-12-30T04:57:15.519Z,507.8
2023-12-30T04:58:17.521Z,507.5
2023-12-30T04:59:19.333Z,507.5
2023-12-30T05:00:24.891Z,507.3
2023-12-30T05:01:27.504Z,507.1
2023-12-30T05:02:29.447Z,507.2
2023-12-30T05:03:31.654Z,506.9
2023-12-30T05:04:33.825Z,507
2023-12-30T05:05:36.122Z,506.9
2023-12-30T05:06:37.887Z,506.9
2023-12-30T05:07:39.905Z,507
2023-12-30T05:08:41.570Z,506.8
2023-12-30T05:09:43.269Z,506.7
2023-12-30T05:10:45.167Z,506.6
2023-12-30T05:11:47.636Z,506.6
2023-12-30T05:12:49.798Z,506.5
2023-12-30T05:13:51.619Z,506.3
2023-12-30T05:14:53.423Z,506.2
2023-12-30T05:15:55.309Z,506.2
2023-12-30T05:16:57.210Z,506.2
2023-12-30T05:17:59.678Z,506
2023-12-30T05:19:02.229Z,506.1
2023-12-30T05:20:04.015Z,506.2
2023-12-30T05:21:05.688Z,506.2
2023-12-30T05:22:07.733Z,505.8
2023-12-30T05:23:09.479Z,506
2023-12-30T05:24:11.165Z,505.4
2023-12-30T05:25:13.285Z,505.5
2023-12-30T05:26:15.198Z,505.1
2023-12-30T05:27:17.073Z,505.2
2023-12-30T05:28:19.237Z,504.9
2023-12-30T05:29:21.097Z,504.9
2023-12-30T05:30:23.055Z,505
2023-12-30T05:31:24.968Z,505.2
2023-12-30T05:32:26.708Z,505.1
2023-12-30T05:33:29.147Z,505.2
2023-12-30T05:34:31.428Z,504.9
2023-12-30T05:35:33.200Z,505.2
2023-12-30T05:36:34.938Z,505
2023-12-30T05:37:37.138Z,505
2023-12-30T05:38:38.979Z,504.7
2023-12-30T05:39:40.680Z,504.7
2023-12-30T05:40:42.782Z,505.2
2023-12-30T05:41:45.060Z,505.5
2023-12-30T05:42:46.792Z,505.3
2023-12-30T05:43:48.850Z,505.2
2023-12-30T05:44:50.685Z,505.2
2023-12-30T05:45:52.665Z,505
2023-12-30T05:46:54.612Z,504.9
2023-12-30T05:47:57.269Z,505.1
2023-12-30T05:48:59.727Z,505
2023-12-30T05:50:02.051Z,505.1
2023-12-30T05:51:03.938Z,504.8
2023-12-30T05:52:05.954Z,504.6
2023-12-30T05:53:08.166Z,504.6
2023-12-30T05:54:09.836Z,504.2
2023-12-30T05:55:13.695Z,504.1
2023-12-30T05:56:15.509Z,504.1
2023-12-30T05:57:17.280Z,504
2023-12-30T05:58:19.311Z,504
2023-12-30T05:59:21.060Z,503.6
2023-12-30T06:00:22.759Z,503.6
2023-12-30T06:01:24.920Z,503.5
2023-12-30T06:02:26.916Z,503.6
2023-12-30T06:03:28.912Z,503.4
2023-12-30T06:04:31.059Z,503.3
2023-12-30T06:05:33.213Z,503.2
2023-12-30T06:06:34.934Z,503.5
2023-12-30T06:07:36.985Z,503.7
2023-12-30T06:08:38.873Z,503.8
2023-12-30T06:09:40.598Z,503.8
2023-12-30T06:10:42.757Z,503.5
2023-12-30T06:11:44.761Z,503.8
2023-12-30T06:12:46.443Z,503.4
2023-12-30T06:13:48.498Z,503.7
2023-12-30T06:14:50.224Z,503.5
2023-12-30T06:15:52.534Z,503.5
2023-12-30T06:16:54.372Z,503.2
2023-12-30T06:17:56.702Z,503.2
2023-12-30T06:18:59.101Z,503.1
2023-12-30T06:20:01.944Z,503.1
2023-12-30T06:21:04.632Z,503.1
2023-12-30T06:22:06.585Z,502.9
2023-12-30T06:23:08.286Z,502.5
2023-12-30T06:24:10.450Z,502.2
2023-12-30T06:25:12.470Z,501.9
2023-12-30T06:26:14.315Z,502.1
2023-12-30T06:27:16.007Z,502.2
2023-12-30T06:28:18.360Z,502
2023-12-30T06:29:20.725Z,502
2023-12-30T06:30:22.618Z,502.1
2023-12-30T06:31:24.765Z,502.2
2023-12-30T06:32:27.027Z,502.4
2023-12-30T06:33:29.620Z,502.4
2023-12-30T06:34:31.708Z,502.6
2023-12-30T06:35:33.623Z,502.5
2023-12-30T06:36:35.321Z,502.5
2023-12-30T06:37:37.315Z,502.2
2023-12-30T06:38:39.006Z,502.1
2023-12-30T06:39:40.686Z,501.9
2023-12-30T06:40:42.545Z,501.7
2023-12-30T06:41:44.236Z,501.5
2023-12-30T06:42:45.987Z,501.4
2023-12-30T06:43:48.314Z,501.4
2023-12-30T06:44:50.133Z,501.3
2023-12-30T06:45:55.031Z,501
2023-12-30T06:46:56.762Z,501.1
2023-12-30T06:47:58.675Z,500.9
2023-12-30T06:49:00.872Z,500.5
2023-12-30T06:50:03.351Z,500.5
2023-12-30T06:51:05.356Z,500.4
2023-12-30T06:52:07.412Z,500.6
2023-12-30T06:53:09.130Z,500.6
2023-12-30T06:54:10.902Z,500.4
2023-12-30T06:55:41.573Z,500
2023-12-30T06:56:47.440Z,499.9
2023-12-30T06:57:49.206Z,500
2023-12-30T06:58:50.907Z,500.3
2023-12-30T06:59:52.587Z,499.9
2023-12-30T07:00:54.845Z,500.2
2023-12-30T07:01:56.950Z,500
2023-12-30T07:02:59.016Z,499.8
2023-12-30T07:04:01.099Z,499.7
2023-12-30T07:05:03.411Z,499.7
2023-12-30T07:06:05.297Z,499.9
2023-12-30T07:07:07.398Z,499.7
2023-12-30T07:08:09.616Z,499.8
2023-12-30T07:09:11.279Z,499.8
2023-12-30T07:10:13.587Z,500.1
2023-12-30T07:11:15.417Z,500.1
2023-12-30T07:12:17.149Z,500
2023-12-30T07:13:19.201Z,499.9
2023-12-30T07:14:21.161Z,499.7
2023-12-30T07:15:22.877Z,499.6
2023-12-30T07:16:24.802Z,499.2
2023-12-30T07:17:26.835Z,499.4
2023-12-30T07:18:29.006Z,499.1
2023-12-30T07:19:31.490Z,499
2023-12-30T07:20:33.259Z,499
2023-12-30T07:21:34.987Z,499.2
2023-12-30T07:22:37.396Z,499.2
2023-12-30T07:23:39.305Z,498.9
2023-12-30T07:24:41.080Z,499
2023-12-30T07:25:43.286Z,498.8
2023-12-30T07:26:46.028Z,498.9
2023-12-30T07:27:47.978Z,498.8
2023-12-30T07:28:49.679Z,498.8
2023-12-30T07:29:51.344Z,498.4
2023-12-30T07:30:53.695Z,498.5
2023-12-30T07:31:55.892Z,498.3
2023-12-30T07:32:58.110Z,498
2023-12-30T07:34:01.384Z,497.9
2023-12-30T07:35:03.600Z,497.4
2023-12-30T07:36:05.730Z,497.5
2023-12-30T07:37:07.888Z,497.2
2023-12-30T07:38:10.120Z,497.5
2023-12-30T07:39:11.801Z,497.3
2023-12-30T07:40:13.952Z,497.4
2023-12-30T07:41:15.817Z,497.1
2023-12-30T07:42:24.222Z,497.4
2023-12-30T07:43:26.398Z,497.8
2023-12-30T07:44:28.218Z,497.4
2023-12-30T07:45:29.953Z,497.1
2023-12-30T07:46:32.050Z,497.5
2023-12-30T07:47:34.123Z,497.3
2023-12-30T07:48:36.073Z,497.8
2023-12-30T07:49:38.530Z,497.8
2023-12-30T07:50:40.341Z,497.6
2023-12-30T07:51:42.010Z,497.4
2023-12-30T07:52:44.542Z,497.3
2023-12-30T07:53:46.577Z,497.4
2023-12-30T07:54:48.606Z,497.1
2023-12-30T07:55:50.415Z,497.3
2023-12-30T07:56:52.189Z,496.8
2023-12-30T07:57:54.057Z,496.5
2023-12-30T07:58:55.788Z,496.6
2023-12-30T07:59:57.567Z,496.7
2023-12-30T08:00:59.909Z,496.7
2023-12-30T08:02:02.334Z,496.3
2023-12-30T08:03:06.650Z,496.5
2023-12-30T08:04:09.720Z,496.5
2023-12-30T08:05:11.996Z,496.3
2023-12-30T08:06:13.770Z,496.4
2023-12-30T08:07:15.674Z,496.8
2023-12-30T08:08:17.618Z,496.6
2023-12-30T08:09:19.436Z,496.5
2023-12-30T08:10:21.793Z,496.8
2023-12-30T08:11:23.600Z,496.6
2023-12-30T08:12:25.359Z,496.5
2023-12-30T08:13:27.219Z,496.6
2023-12-30T08:14:28.965Z,496.4
2023-12-30T08:15:30.782Z,496
2023-12-30T08:16:33.107Z,495.9
2023-12-30T08:17:35.443Z,496.3
2023-12-30T08:18:37.839Z,495.9
2023-12-30T08:19:40.285Z,495.8
2023-12-30T08:20:42.122Z,495.5
2023-12-30T08:21:44.056Z,495.6
2023-12-30T08:22:46.269Z,495.8
2023-12-30T08:23:48.689Z,495.5
2023-12-30T08:24:50.587Z,495.2
2023-12-30T08:25:52.244Z,495.4
2023-12-30T08:26:54.022Z,495.2
2023-12-30T08:27:55.956Z,494.9
2023-12-30T08:28:57.908Z,494.7
2023-12-30T08:29:59.587Z,494.5
2023-12-30T08:31:01.865Z,494.8
2023-12-30T08:32:03.681Z,494.5
2023-12-30T08:33:07.856Z,494.4
2023-12-30T08:34:10.690Z,494.3
2023-12-30T08:35:12.484Z,494.4
2023-12-30T08:36:14.169Z,494.3
2023-12-30T08:37:16.002Z,494.4
2023-12-30T08:38:17.887Z,494.5
2023-12-30T08:39:19.642Z,494.3
2023-12-30T08:40:21.785Z,494.5
2023-12-30T08:41:23.487Z,494.5
2023-12-30T08:42:25.218Z,494.4
2023-12-30T08:43:27.231Z,494.6
2023-12-30T08:44:29.016Z,494.8
2023-12-30T08:45:30.888Z,494.9
2023-12-30T08:46:33.711Z,494.8
2023-12-30T08:47:35.980Z,495.1
2023-12-30T08:48:38.562Z,495.3
2023-12-30T08:49:40.882Z,495.3
2023-12-30T08:50:42.576Z,495.3
2023-12-30T08:51:44.308Z,495.7
2023-12-30T08:52:46.214Z,495.4
2023-12-30T08:53:48.126Z,495.6
2023-12-30T08:54:49.931Z,495.3
2023-12-30T08:55:51.983Z,495.6
2023-12-30T08:56:53.661Z,495.5
2023-12-30T08:57:55.685Z,495.8
2023-12-30T08:58:57.492Z,496.1
2023-12-30T08:59:59.222Z,496.3
2023-12-30T09:01:01.766Z,496.2
2023-12-30T09:02:03.901Z,496.6
2023-12-30T09:03:07.266Z,496.7
2023-12-30T09:04:10.283Z,496.9
2023-12-30T09:05:12.282Z,497
2023-12-30T09:06:14.920Z,496.8
2023-12-30T09:07:17.086Z,496.8
2023-12-30T09:08:18.893Z,497
2023-12-30T09:09:20.611Z,497.4
2023-12-30T09:10:22.724Z,497.6
2023-12-30T09:11:24.813Z,497.6
2023-12-30T09:12:26.642Z,497.7
2023-12-30T09:13:28.492Z,497.6
2023-12-30T09:14:30.390Z,497.5
2023-12-30T09:15:32.204Z,497.9
2023-12-30T09:16:34.658Z,498.1
2023-12-30T09:17:37.190Z,497.9
2023-12-30T09:18:39.578Z,498.1
2023-12-30T09:19:42.106Z,498.2
2023-12-30T09:20:43.976Z,498
2023-12-30T09:21:45.963Z,498.1
2023-12-30T09:22:48.043Z,497.5
2023-12-30T09:23:49.762Z,497.8
2023-12-30T09:24:51.468Z,497.9
2023-12-30T09:25:53.225Z,498.2
2023-12-30T09:26:54.986Z,498.5
2023-12-30T09:27:57.198Z,498.4
2023-12-30T09:28:58.991Z,498.6
2023-12-30T09:30:00.869Z,498.8
2023-12-30T09:31:04.108Z,499.2
2023-12-30T09:32:06.001Z,499.4
2023-12-30T09:33:13.890Z,499.5
2023-12-30T09:34:44.492Z,499.6
2023-12-30T09:35:47.752Z,500.1
2023-12-30T09:36:49.463Z,499.9
2023-12-30T09:37:51.216Z,500.4
2023-12-30T09:38:52.926Z,500.6
2023-12-30T09:39:54.730Z,500.5
2023-12-30T09:40:56.638Z,500.7
2023-12-30T09:41:58.384Z,500.9
2023-12-30T09:43:00.812Z,501.2
2023-12-30T09:44:02.791Z,501
2023-12-30T09:45:04.492Z,500.9
2023-12-30T09:46:07.069Z,501.1
2023-12-30T09:47:09.401Z,501.2
2023-12-30T09:48:12.135Z,501.4
2023-12-30T09:49:13.946Z,501
2023-12-30T09:50:15.714Z,501
2023-12-30T09:51:17.482Z,500.8
2023-12-30T09:52:19.502Z,500.8
2023-12-30T09:53:21.198Z,501
2023-12-30T09:54:49.932Z,501.1
2023-12-30T09:55:52.050Z,501.4
2023-12-30T09:56:53.805Z,501.5
2023-12-30T09:57:56.096Z,501.7
2023-12-30T09:58:58.231Z,501.9
2023-12-30T09:59:59.939Z,501.7
2023-12-30T10:01:02.506Z,501.5
2023-12-30T10:02:05.097Z,501.6
2023-12-30T10:03:07.554Z,501.5
2023-12-30T10:04:09.820Z,501.7
2023-12-30T10:05:12.406Z,501.8
2023-12-30T10:06:14.122Z,502.1
2023-12-30T10:07:15.944Z,501.8
2023-12-30T10:08:17.834Z,502.4
2023-12-30T10:09:19.517Z,502.1
2023-12-30T10:10:21.760Z,502.2
2023-12-30T10:11:23.513Z,502.6
2023-12-30T10:12:25.265Z,502.6
2023-12-30T10:13:28.440Z,502.6
2023-12-30T10:14:30.390Z,502.6
2023-12-30T10:15:32.271Z,502.6
2023-12-30T10:16:34.305Z,502.7
2023-12-30T10:17:36.805Z,502.8
2023-12-30T10:18:39.337Z,502.9
2023-12-30T10:19:41.391Z,502.7
2023-12-30T10:20:43.104Z,502.9
2023-12-30T10:21:44.770Z,503.5
2023-12-30T10:22:46.477Z,503.4
2023-12-30T10:23:48.238Z,503.7
2023-12-30T10:24:50.010Z,503.8
2023-12-30T10:25:52.168Z,504.1
2023-12-30T10:26:53.936Z,504.1
2023-12-30T10:27:55.998Z,504.5
2023-12-30T10:28:58.018Z,504.8
2023-12-30T10:30:02.301Z,504.7
2023-12-30T10:31:05.068Z,504.8
2023-12-30T10:32:07.043Z,504.9
2023-12-30T10:33:10.488Z,504.8
2023-12-30T10:34:13.367Z,505.5
2023-12-30T10:35:15.350Z,505
2023-12-30T10:36:17.051Z,505.1
2023-12-30T10:37:19.340Z,505.3
2023-12-30T10:38:21.089Z,505.3
2023-12-30T10:39:22.802Z,505.1
2023-12-30T10:40:24.804Z,505.4
2023-12-30T10:41:26.661Z,505
2023-12-30T10:42:28.433Z,505.3
2023-12-30T10:43:30.606Z,505.1
2023-12-30T10:44:32.578Z,505
2023-12-30T10:45:34.340Z,505.3
2023-12-30T10:46:36.392Z,505.4
2023-12-30T10:47:38.360Z,505.2
2023-12-30T10:48:40.109Z,505.3
2023-12-30T10:49:42.377Z,505.3
2023-12-30T10:50:44.499Z,506
2023-12-30T10:51:46.605Z,505.5
2023-12-30T10:52:48.297Z,505.8
2023-12-30T10:53:50.108Z,505.9
2023-12-30T10:54:51.797Z,506.2
2023-12-30T10:55:53.544Z,506.1
2023-12-30T10:56:55.286Z,506.2
2023-12-30T10:57:57.135Z,506.5
2023-12-30T10:58:59.215Z,506.9
2023-12-30T11:00:01.366Z,506.5
2023-12-30T11:01:03.830Z,506.9
2023-12-30T11:02:06.160Z,507
2023-12-30T11:03:08.408Z,506.8
2023-12-30T11:04:11.204Z,506.6
2023-12-30T11:05:13.733Z,507.1
2023-12-30T11:06:16.035Z,507.1
2023-12-30T11:07:18.074Z,507.3
2023-12-30T11:08:19.908Z,507.6
2023-12-30T11:09:21.603Z,507.8
2023-12-30T11:10:23.831Z,508
2023-12-30T11:11:25.642Z,508.5
2023-12-30T11:12:27.354Z,508.5
2023-12-30T11:13:29.339Z,508.6
2023-12-30T11:14:31.943Z,508.6
2023-12-30T11:15:34.030Z,508.5
2023-12-30T11:16:35.824Z,508.4
2023-12-30T11:17:38.152Z,508.5
2023-12-30T11:18:40.429Z,508.8
2023-12-30T11:19:42.726Z,508.8
2023-12-30T11:20:45.578Z,509.1
2023-12-30T11:21:48.068Z,509.1
2023-12-30T11:22:49.908Z,509
2023-12-30T11:23:51.600Z,509
2023-12-30T11:24:53.461Z,509.4
2023-12-30T11:25:55.236Z,509.5
2023-12-30T11:26:57.135Z,509.6
2023-12-30T11:27:59.152Z,509.9
2023-12-30T11:29:00.826Z,509.8
2023-12-30T11:30:02.854Z,509.5
2023-12-30T11:31:05.255Z,509.6
2023-12-30T11:32:07.165Z,510.4
2023-12-30T11:33:09.651Z,510.4
2023-12-30T11:34:12.116Z,510.5
2023-12-30T11:35:13.971Z,510.5
2023-12-30T11:36:15.648Z,511
2023-12-30T11:37:17.576Z,510.9
2023-12-30T11:38:19.583Z,510.9
2023-12-30T11:39:21.295Z,510.9
2023-12-30T11:40:23.516Z,510.8
2023-12-30T11:41:25.220Z,511.3
2023-12-30T11:42:49.130Z,511.3
2023-12-30T11:43:51.164Z,511.3
2023-12-30T11:44:58.058Z,511.5
2023-12-30T11:46:00.524Z,511.6
2023-12-30T11:47:02.811Z,512
2023-12-30T11:48:05.058Z,511.9
2023-12-30T11:49:07.556Z,512.2
2023-12-30T11:50:14.032Z,512
2023-12-30T11:51:15.740Z,512
2023-12-30T11:52:17.792Z,511.8
2023-12-30T11:53:19.695Z,512
2023-12-30T11:54:21.434Z,512
2023-12-30T11:55:23.497Z,512
2023-12-30T11:56:25.442Z,512.2
2023-12-30T11:57:27.185Z,512
2023-12-30T11:58:29.367Z,511.8
2023-12-30T11:59:31.114Z,512
2023-12-30T12:00:32.993Z,512
2023-12-30T12:01:35.498Z,512.1
2023-12-30T12:02:37.743Z,512.2
2023-12-30T12:03:39.585Z,512.5
2023-12-30T12:04:42.177Z,512.5
2023-12-30T12:05:44.477Z,512.5
2023-12-30T12:06:46.346Z,512.6
2023-12-30T12:07:48.153Z,512.5
2023-12-30T12:08:49.820Z,512.3
2023-12-30T12:09:51.502Z,512
2023-12-30T12:10:53.286Z,511.8
2023-12-30T12:11:56.257Z,512.5
2023-12-30T12:12:59.135Z,512.5
2023-12-30T12:14:01.190Z,512.5
2023-12-30T12:15:03.011Z,512.7
2023-12-30T12:16:04.811Z,512.7
2023-12-30T12:17:06.638Z,513.1
2023-12-30T12:18:09.282Z,512.6
2023-12-30T12:19:12.137Z,513.1
2023-12-30T12:20:14.023Z,513.5
2023-12-30T12:21:15.746Z,513.2
2023-12-30T12:22:17.654Z,513.1
2023-12-30T12:23:19.341Z,513.1
2023-12-30T12:24:21.038Z,513.2
2023-12-30T12:25:22.834Z,512.8
2023-12-30T12:26:24.575Z,513.5
2023-12-30T12:27:26.295Z,513.4
2023-12-30T12:28:28.115Z,513.1
2023-12-30T12:29:29.873Z,513.6
2023-12-30T12:30:31.942Z,513.9
2023-12-30T12:31:34.004Z,514.1
2023-12-30T12:32:36.362Z,513.6
2023-12-30T12:33:38.761Z,513.9
2023-12-30T12:34:41.092Z,514.1
2023-12-30T12:35:42.921Z,514
2023-12-30T12:36:44.610Z,513.9
2023-12-30T12:37:46.832Z,513.6
2023-12-30T12:38:48.792Z,513.9
2023-12-30T12:39:50.557Z,514
2023-12-30T12:40:52.546Z,514
2023-12-30T12:41:54.339Z,514.3
2023-12-30T12:42:56.372Z,514.1
2023-12-30T12:43:58.210Z,514.2
2023-12-30T12:45:00.148Z,514.1
2023-12-30T12:46:02.255Z,514.3
2023-12-30T12:47:03.966Z,514.2
2023-12-30T12:48:06.460Z,514.1
2023-12-30T12:49:09.469Z,514.3
2023-12-30T12:50:11.396Z,514.5
2023-12-30T12:51:13.106Z,514.3
2023-12-30T12:52:15.077Z,513.7
2023-12-30T12:53:16.856Z,513.9
2023-12-30T12:54:18.512Z,513.9
2023-12-30T12:55:20.681Z,513.7
2023-12-30T12:56:22.400Z,513.7
2023-12-30T12:57:24.123Z,513.8
2023-12-30T12:58:26.164Z,513.6
2023-12-30T12:59:27.919Z,513.3
2023-12-30T13:00:29.660Z,513.6
2023-12-30T13:01:32.007Z,513.3
2023-12-30T13:02:33.855Z,513.6
2023-12-30T13:03:35.985Z,514
2023-12-30T13:04:38.569Z,513.8
2023-12-30T13:05:40.699Z,513.8
2023-12-30T13:06:42.662Z,514
2023-12-30T13:07:44.998Z,514.2
2023-12-30T13:08:48.057Z,514.2
2023-12-30T13:09:49.761Z,514.2
2023-12-30T13:10:51.890Z,514.4
2023-12-30T13:11:53.731Z,514.8
2023-12-30T13:12:55.458Z,514.6
2023-12-30T13:13:57.715Z,514.8
2023-12-30T13:14:59.451Z,515.1
2023-12-30T13:16:01.939Z,514.9
2023-12-30T13:17:03.878Z,514.9
2023-12-30T13:18:06.293Z,515
2023-12-30T13:19:09.365Z,515.2
2023-12-30T13:20:12.402Z,514.9
2023-12-30T13:21:14.132Z,515.4
2023-12-30T13:22:16.026Z,515.4
2023-12-30T13:23:18.101Z,514.7
2023-12-30T13:24:19.864Z,514.5
2023-12-30T13:25:22.075Z,514.6
2023-12-30T13:26:24.760Z,514.8
2023-12-30T13:27:26.974Z,514.5
2023-12-30T13:28:29.045Z,514.8